Time;durP1;ratioP1;P1;durP2;ratioP2;P2;SDS_P1;SDS_P2;PMS_P1;PMS_P2;Temp;Humidity;BMP_temperature;BMP_pressure;BME280_temperature;BME280_humidity;BME280_pressure;Samples;Min_cycle;Max_cycle;Signal;HPM_P1;HPM_P2
2024/03/30 00:02:03;;;;;;;142.73;14.27;;;23.60;28.30;;;;;;4984425;28;20161;-63
2024/03/30 00:04:30;;;;;;;161.23;14.30;;;23.70;28.30;;;;;;4996919;28;20153;-64
2024/03/30 00:06:57;;;;;;;144.82;13.57;;;23.70;28.20;;;;;;4989285;28;20053;-63
2024/03/30 00:09:25;;;;;;;134.95;12.23;;;23.70;28.00;;;;;;4998628;28;20111;-62
2024/03/30 00:11:52;;;;;;;146.55;15.65;;;23.70;28.00;;;;;;4981194;28;20171;-64
2024/03/30 00:14:19;;;;;;;167.93;16.42;;;23.70;28.00;;;;;;5001507;28;20057;-64
2024/03/30 00:16:46;;;;;;;131.73;14.02;;;23.70;28.00;;;;;;4998923;28;20494;-62
2024/03/30 00:19:15;;;;;;;130.43;15.00;;;23.80;28.00;;;;;;5000262;28;20385;-63
2024/03/30 00:21:42;;;;;;;148.02;14.02;;;23.80;27.90;;;;;;5004901;28;20122;-64
2024/03/30 00:24:08;;;;;;;105.15;10.65;;;23.70;27.90;;;;;;4998551;28;20054;-64
2024/03/30 00:26:37;;;;;;;127.72;12.57;;;23.70;27.90;;;;;;5003987;28;20065;-63
2024/03/30 00:29:04;;;;;;;152.32;15.45;;;23.70;27.80;;;;;;5005403;28;20115;-63
2024/03/30 00:31:32;;;;;;;197.02;13.02;;;23.70;27.90;;;;;;5025175;28;20049;-63
2024/03/30 00:33:58;;;;;;;131.15;13.77;;;23.70;27.90;;;;;;4978983;28;20049;-63
2024/03/30 00:36:26;;;;;;;168.13;16.02;;;23.70;27.90;;;;;;5007730;28;20085;-65
2024/03/30 00:38:52;;;;;;;160.90;12.88;;;23.70;27.80;;;;;;5009040;28;20046;-63
2024/03/30 00:41:19;;;;;;;159.10;12.45;;;23.70;27.80;;;;;;5012715;28;20833;-63
2024/03/30 00:43:48;;;;;;;162.45;13.15;;;23.70;27.80;;;;;;5005376;28;20075;-64
2024/03/30 00:46:15;;;;;;;175.60;12.60;;;23.60;27.80;;;;;;5003106;28;20081;-63
2024/03/30 00:48:41;;;;;;;198.27;13.30;;;23.60;27.80;;;;;;5014273;28;20053;-64
2024/03/30 00:51:09;;;;;;;149.27;12.95;;;23.60;27.80;;;;;;5018153;28;20063;-63
2024/03/30 00:53:35;;;;;;;152.70;12.80;;;23.60;27.80;;;;;;5010816;28;20440;-63
2024/03/30 00:56:02;;;;;;;140.50;13.20;;;23.60;27.80;;;;;;4998238;28;20657;-63
2024/03/30 00:58:29;;;;;;;161.13;11.43;;;23.60;27.80;;;;;;4989862;28;20077;-62
2024/03/30 01:00:58;;;;;;;139.02;11.95;;;23.60;27.80;;;;;;5001000;28;20158;-64
2024/03/30 01:03:24;;;;;;;163.60;10.25;;;23.60;27.80;;;;;;4985161;28;20054;-64
2024/03/30 01:05:52;;;;;;;81.00;10.52;;;23.50;27.70;;;;;;4998387;28;20131;-63
2024/03/30 01:08:18;;;;;;;187.13;12.73;;;23.50;27.70;;;;;;4999645;28;20100;-63
2024/03/30 01:10:46;;;;;;;129.05;9.18;;;23.60;27.80;;;;;;4986843;28;20057;-64
2024/03/30 01:13:13;;;;;;;97.45;11.23;;;23.60;27.70;;;;;;4987041;28;20088;-63
2024/03/30 01:15:41;;;;;;;106.05;11.20;;;23.60;27.70;;;;;;5006330;28;20046;-63
2024/03/30 01:18:10;;;;;;;160.20;13.00;;;23.60;27.70;;;;;;4990570;28;20057;-64
2024/03/30 01:20:38;;;;;;;123.85;11.77;;;23.60;27.70;;;;;;5005302;28;20198;-63
2024/03/30 01:23:06;;;;;;;134.52;9.02;;;23.50;27.70;;;;;;4998352;28;20041;-64
2024/03/30 01:25:34;;;;;;;145.70;11.63;;;23.50;27.60;;;;;;4999476;28;20184;-64
2024/03/30 01:28:00;;;;;;;143.95;13.20;;;23.50;27.70;;;;;;4997348;28;20096;-68
2024/03/30 01:30:28;;;;;;;99.50;9.60;;;23.50;27.70;;;;;;5003296;28;20139;-63
2024/03/30 01:32:55;;;;;;;113.65;12.02;;;23.50;27.70;;;;;;5004310;28;20427;-64
2024/03/30 01:35:24;;;;;;;126.78;10.13;;;23.50;27.70;;;;;;5002497;28;20065;-64
2024/03/30 01:37:51;;;;;;;145.75;11.85;;;23.40;27.70;;;;;;4992935;28;20355;-61
2024/03/30 01:40:19;;;;;;;136.52;10.40;;;23.40;27.70;;;;;;5007442;28;20184;-63
2024/03/30 01:42:46;;;;;;;154.23;13.13;;;23.40;27.70;;;;;;4996762;28;20050;-63
2024/03/30 01:45:13;;;;;;;116.40;9.95;;;23.40;27.60;;;;;;4999804;28;20558;-62
2024/03/30 01:47:40;;;;;;;135.30;11.00;;;23.40;27.60;;;;;;5004078;28;20067;-62
2024/03/30 01:50:08;;;;;;;112.38;10.73;;;23.40;27.70;;;;;;4994929;28;20049;-64
2024/03/30 01:52:36;;;;;;;136.02;11.50;;;23.40;27.70;;;;;;5003144;28;20053;-62
2024/03/30 01:55:05;;;;;;;152.27;13.80;;;23.40;27.70;;;;;;5012550;28;20049;-64
2024/03/30 01:57:33;;;;;;;86.45;7.28;;;23.40;27.60;;;;;;5012760;28;20050;-62
2024/03/30 02:00:01;;;;;;;146.07;11.07;;;23.40;27.60;;;;;;5004142;28;20137;-63
2024/03/30 02:02:30;;;;;;;129.65;9.98;;;23.30;27.60;;;;;;5007390;28;20560;-63
2024/03/30 02:04:57;;;;;;;106.00;9.65;;;23.30;27.60;;;;;;5015006;28;20049;-63
2024/03/30 02:07:24;;;;;;;136.20;10.32;;;23.30;27.70;;;;;;5004148;28;20504;-64
2024/03/30 02:09:54;;;;;;;131.43;9.30;;;23.30;27.70;;;;;;5001439;28;20050;-62
2024/03/30 02:12:22;;;;;;;115.45;11.77;;;23.20;27.70;;;;;;4998568;28;20065;-66
2024/03/30 02:14:50;;;;;;;109.97;10.68;;;23.20;27.70;;;;;;4996549;28;20054;-64
2024/03/30 02:17:17;;;;;;;93.15;10.13;;;23.20;27.80;;;;;;5006273;28;20832;-63
2024/03/30 02:19:47;;;;;;;123.43;10.18;;;23.20;27.70;;;;;;5005231;28;20050;-67
2024/03/30 02:22:17;;;;;;;99.63;9.10;;;23.20;27.70;;;;;;4988684;28;20046;-64
2024/03/30 02:24:46;;;;;;;105.28;9.70;;;23.20;27.70;;;;;;5010748;28;20073;-63
2024/03/30 02:27:12;;;;;;;88.57;6.68;;;23.20;27.70;;;;;;4999762;28;20477;-65
2024/03/30 02:29:41;;;;;;;113.47;11.10;;;23.20;27.70;;;;;;5002465;28;20054;-64
2024/03/30 02:32:08;;;;;;;68.95;8.55;;;23.20;27.70;;;;;;5003363;28;20053;-63
2024/03/30 02:34:36;;;;;;;88.53;8.05;;;23.20;27.60;;;;;;5001931;28;20061;-62
2024/03/30 02:37:04;;;;;;;66.70;7.07;;;23.10;27.60;;;;;;5008829;28;20088;-62
2024/03/30 02:39:31;;;;;;;155.27;12.38;;;23.20;27.60;;;;;;5001556;28;20053;-62
2024/03/30 02:41:59;;;;;;;129.45;8.82;;;23.20;27.60;;;;;;5002017;28;20420;-65
2024/03/30 02:44:26;;;;;;;104.28;7.70;;;23.20;27.60;;;;;;5007869;28;20056;-64
2024/03/30 02:46:52;;;;;;;81.80;8.00;;;23.20;27.60;;;;;;5021419;28;20420;-68
2024/03/30 02:49:20;;;;;;;77.88;7.68;;;23.10;27.60;;;;;;5009783;28;20085;-64
2024/03/30 02:51:47;;;;;;;106.88;7.75;;;23.10;27.60;;;;;;5002205;28;20053;-61
2024/03/30 02:54:14;;;;;;;112.10;7.78;;;23.10;27.60;;;;;;5003151;28;20061;-63
2024/03/30 02:56:41;;;;;;;101.35;8.25;;;23.10;27.60;;;;;;4991101;28;20068;-63
2024/03/30 02:59:09;;;;;;;85.90;7.65;;;23.00;27.60;;;;;;5005917;28;20072;-63
2024/03/30 03:01:37;;;;;;;86.72;8.60;;;23.00;27.60;;;;;;5009712;28;20508;-66
2024/03/30 03:04:05;;;;;;;121.63;10.07;;;23.00;27.60;;;;;;4997156;28;20867;-64
2024/03/30 03:06:31;;;;;;;92.95;8.60;;;23.00;27.60;;;;;;5002164;28;20081;-63
2024/03/30 03:08:59;;;;;;;121.50;12.00;;;22.90;27.60;;;;;;4997663;28;20062;-64
2024/03/30 03:11:26;;;;;;;84.00;7.45;;;22.90;27.50;;;;;;5002070;28;20058;-63
2024/03/30 03:13:54;;;;;;;85.75;5.32;;;22.90;27.60;;;;;;4995420;28;20454;-65
2024/03/30 03:16:21;;;;;;;81.72;8.75;;;22.90;27.60;;;;;;5007940;28;20698;-63
2024/03/30 03:18:49;;;;;;;97.82;8.27;;;22.90;27.60;;;;;;4994792;28;20072;-64
2024/03/30 03:21:15;;;;;;;96.32;10.10;;;22.90;27.70;;;;;;5001246;28;20049;-63
2024/03/30 03:23:43;;;;;;;59.67;4.47;;;22.80;27.70;;;;;;4984804;28;20092;-63
2024/03/30 03:26:09;;;;;;;104.13;9.40;;;22.80;27.70;;;;;;4992452;28;20994;-65
2024/03/30 03:28:36;;;;;;;54.92;5.35;;;22.70;28.00;;;;;;5003214;28;20119;-63
2024/03/30 03:31:03;;;;;;;26.67;3.72;;;22.70;27.70;;;;;;5003113;28;20061;-62
2024/03/30 03:33:31;;;;;;;91.40;7.70;;;22.60;27.70;;;;;;5006062;28;20049;-64
2024/03/30 03:36:00;;;;;;;88.22;7.22;;;22.60;27.80;;;;;;4991608;28;20076;-63
2024/03/30 03:38:27;;;;;;;81.07;7.20;;;22.60;27.80;;;;;;4998188;28;20046;-63
2024/03/30 03:40:54;;;;;;;82.95;6.30;;;22.50;27.80;;;;;;4997398;28;20072;-62
2024/03/30 03:43:21;;;;;;;92.68;8.23;;;22.50;27.80;;;;;;5002904;28;20057;-64
2024/03/30 03:45:48;;;;;;;127.43;8.30;;;22.40;27.90;;;;;;5001770;28;20428;-62
2024/03/30 03:48:16;;;;;;;79.70;7.18;;;22.40;27.90;;;;;;5000086;28;20049;-64
2024/03/30 03:50:43;;;;;;;58.85;6.13;;;22.40;28.00;;;;;;5003030;28;20416;-63
2024/03/30 03:53:11;;;;;;;74.03;6.80;;;22.30;28.00;;;;;;5009049;28;20419;-63
2024/03/30 03:55:37;;;;;;;65.95;5.25;;;22.20;28.00;;;;;;5002785;28;20050;-63
2024/03/30 03:58:05;;;;;;;71.18;7.13;;;22.20;28.10;;;;;;4991520;28;20053;-64
2024/03/30 04:00:31;;;;;;;60.70;6.38;;;22.20;28.20;;;;;;5002762;28;20061;-63
2024/03/30 04:02:59;;;;;;;95.75;5.93;;;22.10;28.20;;;;;;5003933;28;20421;-63
2024/03/30 04:05:25;;;;;;;60.95;6.00;;;22.10;28.30;;;;;;4986108;28;20452;-62
2024/03/30 04:07:54;;;;;;;39.63;5.70;;;22.10;28.30;;;;;;4993449;28;20111;-64
2024/03/30 04:10:20;;;;;;;71.93;5.72;;;22.00;28.30;;;;;;4988220;28;20631;-64
2024/03/30 04:12:48;;;;;;;81.47;7.07;;;22.00;28.40;;;;;;5000189;28;20053;-64
2024/03/30 04:15:15;;;;;;;37.75;5.40;;;21.90;28.40;;;;;;5000787;28;20057;-63
2024/03/30 04:17:42;;;;;;;53.60;5.15;;;21.90;28.40;;;;;;4983098;28;20050;-63
2024/03/30 04:20:09;;;;;;;87.05;7.25;;;21.80;28.40;;;;;;4993789;28;20076;-65
2024/03/30 04:22:36;;;;;;;79.47;5.57;;;21.80;28.50;;;;;;4996485;28;20093;-63
2024/03/30 04:25:07;;;;;;;81.75;5.65;;;21.80;28.50;;;;;;5002250;28;20065;-64
2024/03/30 04:27:35;;;;;;;82.43;5.90;;;21.70;28.60;;;;;;4998059;28;20046;-64
2024/03/30 04:30:01;;;;;;;88.75;6.78;;;21.70;28.60;;;;;;4994382;28;20064;-64
2024/03/30 04:32:29;;;;;;;76.00;4.88;;;21.60;28.70;;;;;;4991213;28;20057;-62
2024/03/30 04:34:55;;;;;;;95.05;9.32;;;21.60;28.70;;;;;;4988792;28;20049;-63
2024/03/30 04:37:23;;;;;;;48.60;5.70;;;21.50;28.70;;;;;;5001417;28;20064;-63
2024/03/30 04:39:51;;;;;;;92.00;7.00;;;21.50;28.80;;;;;;4993324;28;20089;-62
2024/03/30 04:42:20;;;;;;;42.10;6.25;;;21.50;28.90;;;;;;4997314;28;20062;-63
2024/03/30 04:44:47;;;;;;;64.47;5.35;;;21.50;28.90;;;;;;4998730;28;20131;-64
2024/03/30 04:47:14;;;;;;;39.30;4.65;;;21.50;28.90;;;;;;5003764;28;20058;-64
2024/03/30 04:49:40;;;;;;;55.75;6.25;;;21.50;28.90;;;;;;5000999;28;20037;-68
2024/03/30 04:52:08;;;;;;;65.30;5.40;;;21.50;29.00;;;;;;4990171;28;20500;-63
2024/03/30 04:54:34;;;;;;;73.85;5.38;;;21.50;28.90;;;;;;4989123;28;20084;-62
2024/03/30 04:57:01;;;;;;;43.47;5.55;;;21.60;28.90;;;;;;4998309;28;20054;-62
2024/03/30 04:59:31;;;;;;;56.85;4.43;;;21.60;28.90;;;;;;4994039;28;20046;-63
2024/03/30 05:01:58;;;;;;;69.70;6.65;;;21.60;28.90;;;;;;4990397;28;20069;-61
2024/03/30 05:04:25;;;;;;;52.28;8.00;;;21.70;28.90;;;;;;4994764;28;20808;-63
2024/03/30 05:06:52;;;;;;;47.55;4.93;;;21.70;28.90;;;;;;4996979;28;20065;-64
2024/03/30 05:09:18;;;;;;;59.55;7.20;;;21.70;28.90;;;;;;5000067;28;20475;-65
2024/03/30 05:11:46;;;;;;;64.43;5.15;;;21.70;28.90;;;;;;4996931;28;20062;-63
2024/03/30 05:14:12;;;;;;;51.35;6.18;;;21.70;28.90;;;;;;5001535;28;20049;-63
2024/03/30 05:16:41;;;;;;;79.13;6.10;;;21.70;28.80;;;;;;5006270;28;20072;-67
2024/03/30 05:20:48;;;;;;;101.45;7.90;;;21.70;28.80;;;;;;5000144;28;20068;-62
2024/03/30 05:21:58;;;;;;;69.88;5.60;;;21.80;28.90;;;;;;4996556;28;20092;-63
2024/03/30 05:24:25;;;;;;;61.63;6.03;;;21.70;28.80;;;;;;4998499;28;20061;-63
2024/03/30 05:26:52;;;;;;;46.30;5.05;;;21.70;29.30;;;;;;5002784;28;20061;-62
2024/03/30 05:29:19;;;;;;;55.03;5.60;;;21.80;28.90;;;;;;5003027;28;20057;-63
2024/03/30 05:31:47;;;;;;;87.90;7.85;;;21.80;28.90;;;;;;5001142;28;20432;-61
2024/03/30 05:34:15;;;;;;;45.15;6.07;;;21.80;28.90;;;;;;4994328;28;20061;-66
2024/03/30 05:36:41;;;;;;;55.85;5.72;;;21.80;28.90;;;;;;5001844;28;20053;-62
2024/03/30 05:39:23;;;;;;;33.88;4.03;;;21.80;28.90;;;;;;4993168;28;20065;-62
2024/03/30 05:41:52;;;;;;;40.97;4.00;;;21.80;28.90;;;;;;4997251;28;20046;-61
2024/03/30 05:44:20;;;;;;;43.65;6.35;;;21.80;28.90;;;;;;4988756;28;20136;-62
2024/03/30 05:46:49;;;;;;;48.25;5.05;;;21.90;28.90;;;;;;4976775;28;20053;-62
2024/03/30 05:49:16;;;;;;;42.15;5.13;;;21.90;28.90;;;;;;4995886;28;20045;-64
2024/03/30 05:51:43;;;;;;;35.95;4.18;;;21.90;28.90;;;;;;4998585;28;20065;-64
2024/03/30 05:54:10;;;;;;;40.35;4.03;;;21.90;28.90;;;;;;4993942;28;20061;-65
2024/03/30 05:56:37;;;;;;;62.67;6.75;;;21.90;28.90;;;;;;5000239;28;20583;-64
2024/03/30 05:59:04;;;;;;;87.75;5.88;;;21.90;28.90;;;;;;4984752;28;20192;-64
2024/03/30 06:01:31;;;;;;;42.28;4.35;;;21.90;28.90;;;;;;5001400;28;20058;-66
2024/03/30 06:03:59;;;;;;;29.88;5.15;;;21.90;29.00;;;;;;4994869;28;20057;-63
2024/03/30 06:06:26;;;;;;;52.08;5.82;;;21.90;29.00;;;;;;4986062;28;20053;-64
2024/03/30 06:08:53;;;;;;;28.83;4.43;;;21.90;29.00;;;;;;5002769;28;20050;-64
2024/03/30 06:11:20;;;;;;;54.17;3.25;;;21.90;29.00;;;;;;5007008;28;20112;-63
2024/03/30 06:13:47;;;;;;;37.45;3.55;;;21.90;29.10;;;;;;5002268;28;20054;-61
2024/03/30 06:16:15;;;;;;;54.90;4.70;;;22.00;29.10;;;;;;4986504;28;20053;-63
2024/03/30 06:18:43;;;;;;;18.50;2.70;;;22.00;29.00;;;;;;4983015;28;20069;-63
2024/03/30 06:21:11;;;;;;;27.05;3.63;;;22.10;29.10;;;;;;5003628;28;20061;-65
2024/03/30 06:23:39;;;;;;;41.70;3.33;;;22.10;29.10;;;;;;4998498;28;20558;-65
2024/03/30 06:26:05;;;;;;;35.88;4.53;;;22.20;29.10;;;;;;5003653;28;20760;-65
2024/03/30 06:28:32;;;;;;;33.45;5.40;;;22.20;29.10;;;;;;5001758;28;20062;-63
2024/03/30 06:31:00;;;;;;;45.88;5.88;;;22.30;29.10;;;;;;5003375;28;20066;-63
2024/03/30 06:33:28;;;;;;;45.47;4.93;;;22.40;29.00;;;;;;5004259;28;20046;-66
2024/03/30 06:35:55;;;;;;;57.45;6.43;;;22.50;29.00;;;;;;4999184;28;20054;-72
2024/03/30 06:38:24;;;;;;;57.80;5.45;;;22.60;29.00;;;;;;4999769;28;20061;-70
2024/03/30 06:43:42;;;;;;;60.13;5.93;;;22.80;28.90;;;;;;5006066;28;20064;-70
2024/03/30 06:46:10;;;;;;;23.80;2.58;;;22.90;28.90;;;;;;4981543;28;20038;-69
2024/03/30 06:48:37;;;;;;;36.78;3.85;;;23.00;28.90;;;;;;4996722;28;20056;-68
2024/03/30 06:51:04;;;;;;;52.13;4.28;;;23.00;28.80;;;;;;4998606;28;20073;-69
2024/03/30 06:53:32;;;;;;;54.25;4.55;;;23.10;28.80;;;;;;4999543;28;20492;-72
2024/03/30 06:56:00;;;;;;;35.55;4.18;;;23.20;28.80;;;;;;4996517;28;20056;-69
2024/03/30 06:58:26;;;;;;;89.07;5.55;;;23.30;28.80;;;;;;5002580;28;20135;-70
2024/03/30 07:00:53;;;;;;;46.58;5.00;;;23.40;28.80;;;;;;4999369;28;20567;-70
2024/03/30 07:03:20;;;;;;;43.10;3.90;;;23.50;28.80;;;;;;5012826;28;20057;-70
2024/03/30 07:05:47;;;;;;;39.15;3.92;;;23.60;28.70;;;;;;5006838;28;20045;-69
2024/03/30 07:08:14;;;;;;;55.38;4.13;;;23.60;28.80;;;;;;4985587;28;20045;-68
2024/03/30 07:10:43;;;;;;;20.85;2.85;;;23.70;28.50;;;;;;4986032;28;20045;-70
2024/03/30 07:13:09;;;;;;;55.30;4.65;;;23.80;28.60;;;;;;5018601;28;20060;-70
2024/03/30 07:15:37;;;;;;;40.20;3.15;;;23.90;28.50;;;;;;5004220;28;20045;-70
2024/03/30 07:18:06;;;;;;;45.10;4.25;;;24.00;28.40;;;;;;4991494;28;20559;-69
2024/03/30 07:20:33;;;;;;;42.20;2.97;;;24.20;28.40;;;;;;4987082;28;20046;-69
2024/03/30 07:22:59;;;;;;;49.03;5.90;;;24.40;28.30;;;;;;5006622;28;20053;-69
2024/03/30 07:25:27;;;;;;;62.92;3.95;;;24.60;28.10;;;;;;5001289;28;20057;-69
2024/03/30 07:27:55;;;;;;;52.38;4.30;;;24.80;28.10;;;;;;4999322;28;20098;-68
2024/03/30 07:30:23;;;;;;;32.85;4.47;;;25.00;27.90;;;;;;4997748;28;20061;-67
2024/03/30 07:32:49;;;;;;;38.25;3.90;;;25.20;27.80;;;;;;5005057;28;20046;-68
2024/03/30 07:35:17;;;;;;;24.67;3.50;;;25.50;27.70;;;;;;4996110;28;20045;-68
2024/03/30 07:37:44;;;;;;;44.13;4.15;;;25.90;27.80;;;;;;4992671;28;20049;-68
2024/03/30 07:40:12;;;;;;;45.25;3.38;;;26.10;27.30;;;;;;4999572;28;20061;-68
2024/03/30 07:42:38;;;;;;;34.30;3.78;;;26.40;27.40;;;;;;5003233;28;20179;-69
2024/03/30 07:45:08;;;;;;;50.85;3.40;;;26.70;27.30;;;;;;4996848;28;20050;-68
2024/03/30 07:47:37;;;;;;;35.60;3.25;;;26.80;27.00;;;;;;4987964;28;20052;-66
2024/03/30 07:50:05;;;;;;;69.30;4.18;;;26.90;26.90;;;;;;4984898;28;20046;-65
2024/03/30 07:52:32;;;;;;;34.17;5.00;;;27.70;27.00;;;;;;4998984;28;20114;-63
2024/03/30 07:54:59;;;;;;;24.77;3.20;;;28.20;26.80;;;;;;5009960;28;20481;-63
2024/03/30 07:57:26;;;;;;;31.35;2.60;;;29.00;26.50;;;;;;4997261;28;20062;-62
2024/03/30 07:59:53;;;;;;;50.25;4.13;;;28.80;25.90;;;;;;4984030;28;20054;-63
2024/03/30 08:02:21;;;;;;;38.13;3.22;;;28.70;25.90;;;;;;5007219;28;20115;-63
2024/03/30 08:04:50;;;;;;;41.40;3.47;;;29.30;26.40;;;;;;5002643;28;20058;-64
2024/03/30 08:07:16;;;;;;;33.03;3.67;;;30.60;26.20;;;;;;5001054;28;20092;-64
2024/03/30 08:09:44;;;;;;;23.25;2.90;;;31.90;25.10;;;;;;5006026;28;20060;-63
2024/03/30 08:12:11;;;;;;;53.58;4.55;;;33.00;24.70;;;;;;4996528;28;21085;-62
2024/03/30 08:14:38;;;;;;;40.78;3.22;;;34.10;24.10;;;;;;4996554;28;20484;-64
2024/03/30 08:17:05;;;;;;;52.15;4.40;;;34.70;23.60;;;;;;5003878;28;20452;-63
2024/03/30 08:19:34;;;;;;;39.88;4.13;;;35.10;23.00;;;;;;5002922;28;20061;-63
2024/03/30 08:22:00;;;;;;;23.13;3.45;;;35.40;22.70;;;;;;4999655;28;20050;-63
2024/03/30 08:24:27;;;;;;;36.00;3.97;;;35.70;22.70;;;;;;4988152;28;20140;-62
2024/03/30 08:26:54;;;;;;;53.55;4.53;;;36.00;22.40;;;;;;5000837;28;20779;-61
2024/03/30 08:29:21;;;;;;;53.05;4.65;;;36.40;22.20;;;;;;4991107;28;20127;-62
2024/03/30 08:31:48;;;;;;;41.75;2.35;;;36.60;21.80;;;;;;4987722;28;20525;-62
2024/03/30 08:34:17;;;;;;;40.78;3.60;;;37.20;21.70;;;;;;5001800;28;20136;-63
2024/03/30 08:36:45;;;;;;;43.45;4.50;;;37.50;21.30;;;;;;4999779;28;20956;-61
2024/03/30 08:39:12;;;;;;;46.13;4.15;;;38.00;21.50;;;;;;5005991;28;20057;-60
2024/03/30 08:41:39;;;;;;;52.58;4.88;;;38.70;20.90;;;;;;5007678;28;20503;-63
2024/03/30 08:44:06;;;;;;;43.95;3.65;;;38.70;20.10;;;;;;4998735;28;20811;-60
2024/03/30 08:46:33;;;;;;;45.63;3.30;;;38.80;20.30;;;;;;5009780;28;20069;-63
2024/03/30 08:49:04;;;;;;;65.88;4.80;;;39.00;20.30;;;;;;4994145;28;20045;-60
2024/03/30 08:51:30;;;;;;;54.50;5.90;;;38.90;19.40;;;;;;5006002;28;20160;-60
2024/03/30 08:54:03;;;;;;;52.25;5.22;;;38.70;19.90;;;;;;4976291;28;20055;-61
2024/03/30 08:56:30;;;;;;;53.80;4.80;;;38.70;19.80;;;;;;5000130;28;20058;-63
2024/03/30 08:58:57;;;;;;;23.13;3.28;;;38.60;19.40;;;;;;5004154;28;20056;-64
2024/03/30 09:01:24;;;;;;;24.83;3.83;;;38.20;18.70;;;;;;5004191;28;20053;-62
2024/03/30 09:03:52;;;;;;;65.15;5.30;;;37.90;18.70;;;;;;4994851;28;20077;-62
2024/03/30 09:06:18;;;;;;;54.65;5.03;;;37.90;18.70;;;;;;5010336;28;20054;-63
2024/03/30 09:08:47;;;;;;;72.82;6.47;;;37.90;18.90;;;;;;5006704;28;20083;-64
2024/03/30 09:11:20;;;;;;;59.30;4.88;;;38.30;19.10;;;;;;4999983;28;20048;-63
2024/03/30 09:14:05;;;;;;;74.82;4.72;;;38.90;19.40;;;;;;5012516;28;20355;-64
2024/03/30 09:16:35;;;;;;;47.33;5.03;;;39.30;18.80;;;;;;4998417;28;20073;-63
2024/03/30 09:19:05;;;;;;;58.33;5.57;;;39.10;18.50;;;;;;4993068;28;20122;-63
2024/03/30 09:21:33;;;;;;;55.63;5.32;;;39.10;18.70;;;;;;5003330;28;20054;-64
2024/03/30 09:23:59;;;;;;;96.18;7.78;;;39.30;18.70;;;;;;4995701;28;20057;-63
2024/03/30 09:26:28;;;;;;;61.67;3.95;;;39.50;18.70;;;;;;5001311;28;20449;-67
2024/03/30 09:28:54;;;;;;;67.47;4.97;;;39.60;18.40;;;;;;4998645;28;20161;-64
2024/03/30 09:31:21;;;;;;;77.25;5.50;;;39.30;18.10;;;;;;5000692;28;20390;-62
2024/03/30 09:33:49;;;;;;;84.95;6.22;;;39.00;17.90;;;;;;4989389;28;20049;-63
2024/03/30 09:36:18;;;;;;;48.80;6.47;;;38.50;17.90;;;;;;5007930;28;20050;-63
2024/03/30 09:38:44;;;;;;;72.10;5.25;;;38.50;18.60;;;;;;4999552;28;20115;-62
2024/03/30 09:41:15;;;;;;;68.70;6.55;;;38.40;18.10;;;;;;4998673;28;20045;-65
2024/03/30 09:43:43;;;;;;;75.70;6.28;;;38.80;18.50;;;;;;4981972;28;20088;-65
2024/03/30 09:46:11;;;;;;;60.85;4.85;;;38.90;17.90;;;;;;5000734;28;20084;-63
2024/03/30 09:48:38;;;;;;;61.50;6.22;;;39.10;18.10;;;;;;4987440;28;20049;-63
2024/03/30 09:51:08;;;;;;;73.32;8.02;;;39.40;17.90;;;;;;5001021;28;20319;-64
2024/03/30 09:53:38;;;;;;;78.70;5.65;;;39.40;17.60;;;;;;5004674;28;20123;-65
2024/03/30 09:56:07;;;;;;;70.25;7.82;;;39.20;17.30;;;;;;4992867;28;20091;-66
2024/03/30 09:58:34;;;;;;;49.70;5.40;;;38.90;17.30;;;;;;5003881;28;20508;-63
2024/03/30 10:01:04;;;;;;;72.78;6.32;;;38.80;17.60;;;;;;4985670;28;20184;-64
2024/03/30 10:03:31;;;;;;;94.00;9.95;;;38.60;17.30;;;;;;5002746;28;20088;-64
2024/03/30 10:06:02;;;;;;;67.18;5.68;;;38.00;16.80;;;;;;4994049;28;20061;-63
2024/03/30 10:08:34;;;;;;;59.92;5.60;;;37.80;17.10;;;;;;4982989;28;20358;-63
2024/03/30 10:11:08;;;;;;;78.35;7.00;;;37.40;17.00;;;;;;5002611;28;20508;-63
2024/03/30 10:13:41;;;;;;;60.28;7.55;;;37.40;17.50;;;;;;5003182;28;20061;-64
2024/03/30 10:16:10;;;;;;;98.13;6.63;;;37.70;17.50;;;;;;4990347;28;20061;-65
2024/03/30 10:18:37;;;;;;;96.40;7.00;;;37.90;17.40;;;;;;4979592;28;20446;-65
2024/03/30 10:21:05;;;;;;;86.32;12.00;;;37.80;16.80;;;;;;4978623;28;20358;-65
2024/03/30 10:23:32;;;;;;;101.00;7.68;;;37.30;16.70;;;;;;5001460;28;20440;-62
2024/03/30 10:26:04;;;;;;;79.85;7.57;;;37.20;16.80;;;;;;4992387;28;20053;-61
2024/03/30 10:28:31;;;;;;;106.63;12.88;;;37.10;16.80;;;;;;5002190;28;20062;-62
2024/03/30 10:30:59;;;;;;;60.85;6.03;;;37.10;16.90;;;;;;4988046;28;20045;-65
2024/03/30 10:33:28;;;;;;;86.03;6.88;;;37.20;17.10;;;;;;5032532;28;20315;-67
2024/03/30 10:35:57;;;;;;;96.90;8.82;;;37.50;17.10;;;;;;4995647;28;20102;-64
2024/03/30 10:38:26;;;;;;;107.50;7.07;;;37.50;16.80;;;;;;5001242;28;20115;-64
2024/03/30 10:40:55;;;;;;;75.03;6.65;;;37.50;16.70;;;;;;5001846;28;20049;-63
2024/03/30 10:43:22;;;;;;;92.57;6.57;;;37.50;16.80;;;;;;4998434;28;20065;-62
2024/03/30 10:45:52;;;;;;;100.47;6.68;;;37.40;16.70;;;;;;4997748;28;20716;-63
2024/03/30 10:48:19;;;;;;;84.88;6.50;;;37.40;16.70;;;;;;5008141;28;20380;-66
2024/03/30 10:50:48;;;;;;;79.85;7.05;;;37.20;16.60;;;;;;5006803;28;20524;-61
2024/03/30 10:53:14;;;;;;;89.20;9.85;;;37.30;16.80;;;;;;5006414;28;20064;-63
2024/03/30 10:55:42;;;;;;;99.22;7.45;;;37.30;16.80;;;;;;4986567;28;20425;-67
2024/03/30 10:58:09;;;;;;;91.70;6.45;;;37.30;16.70;;;;;;5003916;28;20056;-65
2024/03/30 11:00:38;;;;;;;42.10;4.30;;;37.20;16.70;;;;;;5013465;28;20071;-64
2024/03/30 11:03:07;;;;;;;100.90;16.60;;;36.90;16.70;;;;;;5007454;28;20052;-62
2024/03/30 11:05:35;;;;;;;76.63;4.53;;;36.70;16.80;;;;;;5000967;28;20147;-62
2024/03/30 11:08:05;;;;;;;55.15;5.00;;;36.60;17.00;;;;;;4993784;28;20215;-62
2024/03/30 11:10:32;;;;;;;95.60;6.53;;;36.40;16.90;;;;;;4998201;28;20064;-63
2024/03/30 11:13:01;;;;;;;84.00;6.57;;;35.80;16.60;;;;;;4990065;28;20054;-63
2024/03/30 11:15:32;;;;;;;71.40;10.70;;;35.20;16.90;;;;;;5003145;28;20394;-64
2024/03/30 11:18:03;;;;;;;51.78;6.05;;;34.60;17.10;;;;;;4999361;28;20120;-60
2024/03/30 11:20:37;;;;;;;77.70;3.55;;;33.80;17.20;;;;;;5001053;28;20109;-62
2024/03/30 11:23:09;;;;;;;66.75;5.80;;;32.90;17.40;;;;;;4987370;28;20057;-66
2024/03/30 11:25:38;;;;;;;80.38;7.05;;;32.10;17.80;;;;;;5006835;28;20068;-63
2024/03/30 11:28:08;;;;;;;66.93;7.55;;;31.50;18.10;;;;;;4990397;28;20061;-64
2024/03/30 11:30:44;;;;;;;98.20;6.63;;;31.00;18.30;;;;;;5000089;28;20067;-63
2024/03/30 11:33:19;;;;;;;60.08;5.65;;;30.60;18.40;;;;;;5011039;28;20522;-63
2024/03/30 11:35:55;;;;;;;57.47;4.80;;;30.20;18.50;;;;;;4998654;28;20045;-60
2024/03/30 11:38:26;;;;;;;;;;;30.00;18.70;;;;;;5001229;28;20073;-64
2024/03/30 11:41:00;;;;;;;46.83;4.85;;;29.80;18.90;;;;;;5002971;28;19972;-66
2024/03/30 11:43:37;;;;;;;70.78;6.60;;;29.60;19.00;;;;;;5008432;28;20061;-64
2024/03/30 11:46:05;;;;;;;47.15;3.35;;;29.50;19.30;;;;;;5003472;28;20140;-64
2024/03/30 11:48:33;;;;;;;49.67;4.72;;;29.40;19.00;;;;;;5000166;28;20461;-65
2024/03/30 11:50:59;;;;;;;45.53;4.70;;;29.20;19.10;;;;;;5011046;28;20052;-65
2024/03/30 11:53:35;;;;;;;88.75;6.65;;;29.10;19.20;;;;;;4990764;28;20107;-64
2024/03/30 11:56:02;;;;;;;57.95;3.88;;;29.00;19.20;;;;;;4998951;28;20083;-64
2024/03/30 11:58:30;;;;;;;98.05;6.43;;;29.00;19.30;;;;;;4998122;28;20080;-64
2024/03/30 12:00:58;;;;;;;47.25;5.13;;;28.90;19.30;;;;;;5001263;28;20064;-64
2024/03/30 12:03:26;;;;;;;72.70;5.32;;;28.80;19.40;;;;;;5001037;28;20049;-64
2024/03/30 12:05:56;;;;;;;21.15;3.95;;;28.80;19.50;;;;;;4997761;28;20416;-64
2024/03/30 12:08:26;;;;;;;54.15;6.20;;;28.70;19.50;;;;;;5000037;28;20065;-65
2024/03/30 12:10:55;;;;;;;65.47;4.85;;;28.60;19.30;;;;;;5005418;28;20092;-65
2024/03/30 12:13:24;;;;;;;72.07;6.03;;;28.60;19.60;;;;;;5000929;28;20069;-63
2024/03/30 12:15:52;;;;;;;81.05;6.88;;;28.50;19.60;;;;;;4986306;28;20691;-67
2024/03/30 12:18:20;;;;;;;69.80;7.20;;;28.50;19.80;;;;;;5008164;28;20054;-65
2024/03/30 12:20:48;;;;;;;90.40;7.93;;;28.60;19.80;;;;;;5000516;28;20480;-63
2024/03/30 12:23:19;;;;;;;69.35;5.65;;;28.50;19.80;;;;;;5008997;28;20548;-65
2024/03/30 12:25:57;;;;;;;62.50;5.63;;;28.50;19.80;;;;;;4995998;28;20664;-63
2024/03/30 12:28:25;;;;;;;56.75;6.45;;;28.50;19.80;;;;;;5008005;28;20058;-64
2024/03/30 12:30:53;;;;;;;43.42;3.90;;;28.40;19.80;;;;;;5004191;28;20112;-64
2024/03/30 12:33:21;;;;;;;117.53;9.52;;;28.30;19.70;;;;;;5007169;28;20145;-63
2024/03/30 12:35:51;;;;;;;67.15;5.70;;;28.20;19.80;;;;;;5002521;28;20412;-64
2024/03/30 12:38:21;;;;;;;80.72;6.85;;;28.20;19.90;;;;;;5001664;28;20056;-63
2024/03/30 12:40:47;;;;;;;97.88;6.30;;;28.20;19.90;;;;;;5007814;28;20062;-65